Grand Rapids, MI

6:08 AM EDT on May 07, 2015 (GMT -0400)
Tulip City | | Change Station
CLOSE
Current Station
Airport
Location: Holland,
Elevation: 686 ft
Nearby Weather Stations

Elev 686 ft 42.75 °N, 86.10 °W | Updated 15 minutes ago

Clear
Clear
60 °F
Feels Like 60 °F
N
8
Wind Variable Wind from SSE

Today
High -- | Low -- °F
--% Chance of Precip.
Yesterday
High -- | Low -- °F
Precip. -- in
6:28 AM 8:50 PM
Waning Gibbous, 89% visible
Pressure 30.09 in
Visibility 7.0 miles
Clouds Clear
Dew Point 56 °F
Humidity 86%
Rainfall 0.00 in
Snow Depth Not available.
UV 0 out of 12
Pollen 7.20 out of 12
Air Quality Not available.
Flu Activity Regional
METAR KBIV 070953Z AUTO 15007KT 7SM CLR 16/13 A3010 RMK AO2 SLP190 T01560133

More Conditions Fewer Conditions

Pressure 30.09 in
Visibility 7.0 miles
Clouds Clear
Dew Point 56 °F
Humidity 86%
Rainfall 0.00 in
Snow Depth Not available.
UV 0 out of 12
Pollen 7.20 out of 12
Air Quality Not available.
Flu Activity Regional
METAR KBIV 070953Z AUTO 15007KT 7SM CLR 16/13 A3010 RMK AO2 SLP190 T01560133

More Conditions Fewer Conditions

10-Day Weather Forecast

Almanac

Astronomy

May. 07, 2015 Rise Set
Actual Time
Civil Twilight
Nautical Twilight
Astronomical Twilight
Moon
Length of Visible Light
Length of Day
Tomorrow will be .
, % of the Moon is Illuminated

Today's Extremes

State Highs State Lows

Community

WunderPhotos

Upload Photos

1,819,135 photos uploaded!

WunderBlogs® & News

Nearby

Air Quality

  Air Quality AQ Index Pollutant
Not available.

Snow Depth

Station Depth Elevation

Earthquake Activity

City Distance Mag. Time & Date
Minimum magnitude displayed is 2.5.

Coastal Water Temperatures

Place Temperature

Stations

Nearby Weather Stations

Station Location Temp. Windchill Dew Point Humidity Wind Precip. Elev Updated Type